sensor_id;sensor_type;location;lat;lon;timestamp;pressure;altitude;pressure_sealevel;temperature;humidity
64388;BME280;50709;52.648;4.764;2023-02-15T00:01:07;103014.69;;;9.49;69.43
64388;BME280;50709;52.648;4.764;2023-02-15T00:03:33;103011.13;;;9.04;69.90
64388;BME280;50709;52.648;4.764;2023-02-15T00:05:58;103022.88;;;9.16;69.70
64388;BME280;50709;52.648;4.764;2023-02-15T00:08:23;103011.38;;;9.11;69.09
64388;BME280;50709;52.648;4.764;2023-02-15T00:10:49;103021.44;;;9.03;69.71
64388;BME280;50709;52.648;4.764;2023-02-15T00:13:14;102997.91;;;9.21;69.07
64388;BME280;50709;52.648;4.764;2023-02-15T00:15:40;102983.44;;;9.08;69.61
64388;BME280;50709;52.648;4.764;2023-02-15T00:18:05;102977.66;;;8.74;70.22
64388;BME280;50709;52.648;4.764;2023-02-15T00:20:31;102971.69;;;8.97;70.88
64388;BME280;50709;52.648;4.764;2023-02-15T00:22:56;102973.78;;;9.05;70.52
64388;BME280;50709;52.648;4.764;2023-02-15T00:25:21;102991.28;;;9.29;70.28
64388;BME280;50709;52.648;4.764;2023-02-15T00:27:47;102975.44;;;9.03;68.68
64388;BME280;50709;52.648;4.764;2023-02-15T00:30:12;102980.72;;;9.05;69.49
64388;BME280;50709;52.648;4.764;2023-02-15T00:32:38;102985.34;;;9.12;68.98
64388;BME280;50709;52.648;4.764;2023-02-15T00:35:03;102988.94;;;9.14;69.08
64388;BME280;50709;52.648;4.764;2023-02-15T00:37:29;102958.75;;;8.79;69.60
64388;BME280;50709;52.648;4.764;2023-02-15T00:39:55;102966.63;;;8.61;68.86
64388;BME280;50709;52.648;4.764;2023-02-15T00:42:20;102966.69;;;8.82;72.05
64388;BME280;50709;52.648;4.764;2023-02-15T00:44:45;102966.22;;;8.71;70.10
64388;BME280;50709;52.648;4.764;2023-02-15T00:47:11;102971.00;;;8.81;70.63
64388;BME280;50709;52.648;4.764;2023-02-15T00:49:36;102963.84;;;8.56;69.54
64388;BME280;50709;52.648;4.764;2023-02-15T00:52:02;102969.88;;;8.55;69.80
64388;BME280;50709;52.648;4.764;2023-02-15T00:54:27;102973.41;;;8.57;70.52
64388;BME280;50709;52.648;4.764;2023-02-15T00:56:52;102971.56;;;8.74;70.45
64388;BME280;50709;52.648;4.764;2023-02-15T00:59:18;102969.19;;;8.79;70.91
64388;BME280;50709;52.648;4.764;2023-02-15T01:01:43;102959.47;;;8.17;69.95
64388;BME280;50709;52.648;4.764;2023-02-15T01:04:08;102947.81;;;8.47;71.37
64388;BME280;50709;52.648;4.764;2023-02-15T01:06:34;102960.88;;;8.48;70.12
64388;BME280;50709;52.648;4.764;2023-02-15T01:08:59;102956.28;;;8.42;70.85
64388;BME280;50709;52.648;4.764;2023-02-15T01:11:25;102940.88;;;8.09;69.09
64388;BME280;50709;52.648;4.764;2023-02-15T01:13:52;102948.09;;;8.35;71.21
64388;BME280;50709;52.648;4.764;2023-02-15T01:16:18;102918.75;;;7.80;71.09
64388;BME280;50709;52.648;4.764;2023-02-15T01:18:44;102926.38;;;7.95;71.89
64388;BME280;50709;52.648;4.764;2023-02-15T01:21:15;102943.91;;;7.99;72.29
64388;BME280;50709;52.648;4.764;2023-02-15T01:23:42;102894.53;;;7.63;71.38
64388;BME280;50709;52.648;4.764;2023-02-15T01:26:08;102902.47;;;8.04;72.25
64388;BME280;50709;52.648;4.764;2023-02-15T01:28:34;102932.94;;;7.87;70.41
64388;BME280;50709;52.648;4.764;2023-02-15T01:31:05;102943.47;;;8.09;72.23
64388;BME280;50709;52.648;4.764;2023-02-15T01:33:30;102934.97;;;7.94;72.34
64388;BME280;50709;52.648;4.764;2023-02-15T01:35:57;102924.50;;;7.74;72.67
64388;BME280;50709;52.648;4.764;2023-02-15T01:38:22;102926.03;;;7.69;71.88
64388;BME280;50709;52.648;4.764;2023-02-15T01:40:51;102928.03;;;7.75;72.74
64388;BME280;50709;52.648;4.764;2023-02-15T01:43:17;102906.03;;;7.68;72.56
64388;BME280;50709;52.648;4.764;2023-02-15T01:45:43;102925.81;;;8.02;72.25
64388;BME280;50709;52.648;4.764;2023-02-15T01:48:19;102886.91;;;7.86;71.24
64388;BME280;50709;52.648;4.764;2023-02-15T01:50:50;102905.34;;;7.72;71.48
64388;BME280;50709;52.648;4.764;2023-02-15T01:53:18;102950.16;;;7.85;71.01
64388;BME280;50709;52.648;4.764;2023-02-15T01:56:05;102937.38;;;7.71;72.12
64388;BME280;50709;52.648;4.764;2023-02-15T01:58:31;102923.44;;;7.69;72.09
64388;BME280;50709;52.648;4.764;2023-02-15T02:01:00;102933.84;;;7.69;73.23
64388;BME280;50709;52.648;4.764;2023-02-15T02:03:43;102911.53;;;7.56;72.85
64388;BME280;50709;52.648;4.764;2023-02-15T02:06:13;102879.63;;;7.79;72.25
64388;BME280;50709;52.648;4.764;2023-02-15T02:08:38;102919.13;;;7.89;72.33
64388;BME280;50709;52.648;4.764;2023-02-15T02:11:13;102914.97;;;7.93;72.49
64388;BME280;50709;52.648;4.764;2023-02-15T02:13:40;102897.56;;;7.72;72.30
64388;BME280;50709;52.648;4.764;2023-02-15T02:16:32;102918.13;;;7.68;73.50
64388;BME280;50709;52.648;4.764;2023-02-15T02:19:40;102913.22;;;7.74;72.18
64388;BME280;50709;52.648;4.764;2023-02-15T02:25:18;102907.41;;;7.80;72.51
64388;BME280;50709;52.648;4.764;2023-02-15T02:28:37;102891.19;;;7.85;72.46
64388;BME280;50709;52.648;4.764;2023-02-15T02:34:15;102867.06;;;7.32;72.45
64388;BME280;50709;52.648;4.764;2023-02-15T02:36:50;102884.66;;;7.56;72.46
64388;BME280;50709;52.648;4.764;2023-02-15T02:42:21;102889.22;;;7.80;72.82
64388;BME280;50709;52.648;4.764;2023-02-15T02:44:59;102832.53;;;7.35;72.83
64388;BME280;50709;52.648;4.764;2023-02-15T02:47:46;102879.53;;;7.39;72.17
64388;BME280;50709;52.648;4.764;2023-02-15T02:50:20;102869.78;;;7.35;73.82
64388;BME280;50709;52.648;4.764;2023-02-15T02:52:51;102861.63;;;7.10;72.54
64388;BME280;50709;52.648;4.764;2023-02-15T02:57:55;102803.81;;;6.78;74.10
64388;BME280;50709;52.648;4.764;2023-02-15T03:00:25;102845.06;;;6.89;74.51
64388;BME280;50709;52.648;4.764;2023-02-15T03:02:55;102837.97;;;7.03;74.86
64388;BME280;50709;52.648;4.764;2023-02-15T03:05:26;102843.00;;;7.18;74.00
64388;BME280;50709;52.648;4.764;2023-02-15T03:07:53;102850.50;;;7.12;73.81
64388;BME280;50709;52.648;4.764;2023-02-15T03:10:23;102840.31;;;6.81;74.62
64388;BME280;50709;52.648;4.764;2023-02-15T03:12:49;102830.00;;;6.64;74.50
64388;BME280;50709;52.648;4.764;2023-02-15T03:15:16;102840.25;;;6.97;75.23
64388;BME280;50709;52.648;4.764;2023-02-15T03:17:49;102842.25;;;6.50;73.41
64388;BME280;50709;52.648;4.764;2023-02-15T03:20:27;102789.63;;;6.36;74.96
64388;BME280;50709;52.648;4.764;2023-02-15T03:22:58;102832.19;;;6.56;72.88
64388;BME280;50709;52.648;4.764;2023-02-15T03:25:36;102805.16;;;6.53;74.52
64388;BME280;50709;52.648;4.764;2023-02-15T03:28:11;102817.13;;;6.33;73.92
64388;BME280;50709;52.648;4.764;2023-02-15T03:30:39;102818.72;;;6.13;74.94
64388;BME280;50709;52.648;4.764;2023-02-15T03:33:06;102824.63;;;6.27;75.16
64388;BME280;50709;52.648;4.764;2023-02-15T03:35:53;102833.59;;;6.50;75.51
64388;BME280;50709;52.648;4.764;2023-02-15T03:38:29;102817.38;;;6.72;75.17
64388;BME280;50709;52.648;4.764;2023-02-15T03:40:59;102823.75;;;6.79;74.94
64388;BME280;50709;52.648;4.764;2023-02-15T03:43:54;102822.13;;;6.63;74.46
64388;BME280;50709;52.648;4.764;2023-02-15T03:46:32;102798.56;;;6.60;74.69
64388;BME280;50709;52.648;4.764;2023-02-15T03:49:16;102825.13;;;6.54;74.55
64388;BME280;50709;52.648;4.764;2023-02-15T03:51:46;102811.97;;;6.67;74.70
64388;BME280;50709;52.648;4.764;2023-02-15T03:54:17;102712.22;;;6.28;74.49
64388;BME280;50709;52.648;4.764;2023-02-15T03:57:03;102811.22;;;6.88;73.76
64388;BME280;50709;52.648;4.764;2023-02-15T03:59:47;102779.09;;;6.86;74.00
64388;BME280;50709;52.648;4.764;2023-02-15T04:02:39;102790.81;;;6.96;73.89
64388;BME280;50709;52.648;4.764;2023-02-15T04:05:05;102783.56;;;6.88;74.08
64388;BME280;50709;52.648;4.764;2023-02-15T04:07:30;102767.13;;;6.89;73.52
64388;BME280;50709;52.648;4.764;2023-02-15T04:09:56;102792.38;;;6.74;72.68
64388;BME280;50709;52.648;4.764;2023-02-15T04:12:39;102780.94;;;6.70;73.95
64388;BME280;50709;52.648;4.764;2023-02-15T04:15:05;102794.44;;;6.45;73.07
64388;BME280;50709;52.648;4.764;2023-02-15T04:17:49;102786.09;;;6.18;73.32
64388;BME280;50709;52.648;4.764;2023-02-15T04:20:18;102773.47;;;6.42;73.75
64388;BME280;50709;52.648;4.764;2023-02-15T04:23:05;102772.16;;;6.50;73.98
64388;BME280;50709;52.648;4.764;2023-02-15T04:25:49;102774.25;;;6.23;73.53
64388;BME280;50709;52.648;4.764;2023-02-15T04:28:15;102778.09;;;6.48;74.24
64388;BME280;50709;52.648;4.764;2023-02-15T04:30:40;102763.16;;;6.26;73.95
64388;BME280;50709;52.648;4.764;2023-02-15T04:33:06;102777.44;;;6.52;74.67
64388;BME280;50709;52.648;4.764;2023-02-15T04:35:31;102769.31;;;6.98;73.49
64388;BME280;50709;52.648;4.764;2023-02-15T04:37:58;102730.66;;;6.68;72.81
64388;BME280;50709;52.648;4.764;2023-02-15T04:40:24;102747.63;;;6.80;73.46
64388;BME280;50709;52.648;4.764;2023-02-15T04:42:49;102743.47;;;6.83;73.83
64388;BME280;50709;52.648;4.764;2023-02-15T04:45:15;102770.06;;;6.78;73.00
64388;BME280;50709;52.648;4.764;2023-02-15T04:47:41;102750.97;;;6.59;73.45
64388;BME280;50709;52.648;4.764;2023-02-15T04:50:07;102749.03;;;6.55;73.62
64388;BME280;50709;52.648;4.764;2023-02-15T04:52:32;102764.47;;;6.70;74.09
64388;BME280;50709;52.648;4.764;2023-02-15T04:54:58;102755.19;;;6.57;73.76
64388;BME280;50709;52.648;4.764;2023-02-15T04:57:23;102763.94;;;6.59;73.76
64388;BME280;50709;52.648;4.764;2023-02-15T04:59:49;102769.88;;;6.56;73.29
64388;BME280;50709;52.648;4.764;2023-02-15T05:02:14;102764.00;;;6.43;73.53
64388;BME280;50709;52.648;4.764;2023-02-15T05:04:39;102769.56;;;6.50;74.80
64388;BME280;50709;52.648;4.764;2023-02-15T05:07:05;102758.66;;;6.39;73.90
64388;BME280;50709;52.648;4.764;2023-02-15T05:09:30;102757.25;;;6.46;73.78
64388;BME280;50709;52.648;4.764;2023-02-15T05:11:55;102762.75;;;6.70;73.62
64388;BME280;50709;52.648;4.764;2023-02-15T05:14:21;102763.50;;;6.50;72.78
64388;BME280;50709;52.648;4.764;2023-02-15T05:16:46;102755.91;;;6.54;73.46
64388;BME280;50709;52.648;4.764;2023-02-15T05:19:12;102756.81;;;6.73;74.13
64388;BME280;50709;52.648;4.764;2023-02-15T05:21:37;102742.88;;;6.53;74.40
64388;BME280;50709;52.648;4.764;2023-02-15T05:24:03;102742.53;;;6.29;73.61
64388;BME280;50709;52.648;4.764;2023-02-15T05:26:48;102738.84;;;6.23;74.33
64388;BME280;50709;52.648;4.764;2023-02-15T05:29:32;102741.69;;;6.82;74.82
64388;BME280;50709;52.648;4.764;2023-02-15T05:31:58;102731.50;;;6.87;73.47
64388;BME280;50709;52.648;4.764;2023-02-15T05:34:23;102735.00;;;7.05;72.18
64388;BME280;50709;52.648;4.764;2023-02-15T05:36:48;102734.13;;;7.05;72.46
64388;BME280;50709;52.648;4.764;2023-02-15T05:39:14;102733.53;;;6.93;72.22
64388;BME280;50709;52.648;4.764;2023-02-15T05:41:39;102734.78;;;7.01;71.89
64388;BME280;50709;52.648;4.764;2023-02-15T05:44:04;102745.13;;;7.19;73.61
64388;BME280;50709;52.648;4.764;2023-02-15T05:46:30;102742.84;;;7.07;72.37
64388;BME280;50709;52.648;4.764;2023-02-15T05:48:55;102731.28;;;7.18;71.68
64388;BME280;50709;52.648;4.764;2023-02-15T05:51:21;102711.59;;;7.05;70.90
64388;BME280;50709;52.648;4.764;2023-02-15T05:53:46;102725.00;;;6.95;71.18
64388;BME280;50709;52.648;4.764;2023-02-15T05:56:11;102723.00;;;7.27;70.36
64388;BME280;50709;52.648;4.764;2023-02-15T05:58:39;102729.06;;;7.65;69.26
64388;BME280;50709;52.648;4.764;2023-02-15T06:01:16;102728.63;;;7.95;68.12
64388;BME280;50709;52.648;4.764;2023-02-15T06:03:42;102712.81;;;7.51;68.98
64388;BME280;50709;52.648;4.764;2023-02-15T06:06:07;102718.66;;;7.65;70.28
64388;BME280;50709;52.648;4.764;2023-02-15T06:08:34;102725.84;;;7.92;68.24
64388;BME280;50709;52.648;4.764;2023-02-15T06:11:00;102697.69;;;7.82;69.14
64388;BME280;50709;52.648;4.764;2023-02-15T06:13:25;102707.38;;;8.27;67.70
64388;BME280;50709;52.648;4.764;2023-02-15T06:15:51;102699.53;;;8.90;67.13
64388;BME280;50709;52.648;4.764;2023-02-15T06:18:16;102696.53;;;8.58;66.14
64388;BME280;50709;52.648;4.764;2023-02-15T06:20:41;102708.91;;;8.86;65.93
64388;BME280;50709;52.648;4.764;2023-02-15T06:23:07;102696.00;;;8.03;66.83
64388;BME280;50709;52.648;4.764;2023-02-15T06:25:32;102703.63;;;8.20;67.94
64388;BME280;50709;52.648;4.764;2023-02-15T06:27:57;102691.13;;;8.11;67.62
64388;BME280;50709;52.648;4.764;2023-02-15T06:30:23;102691.06;;;8.31;67.47
64388;BME280;50709;52.648;4.764;2023-02-15T06:32:48;102698.59;;;9.59;68.85
64388;BME280;50709;52.648;4.764;2023-02-15T06:35:14;102703.66;;;9.79;64.22
64388;BME280;50709;52.648;4.764;2023-02-15T06:37:39;102704.38;;;9.26;66.23
64388;BME280;50709;52.648;4.764;2023-02-15T06:40:05;102718.16;;;9.46;66.83
64388;BME280;50709;52.648;4.764;2023-02-15T06:42:31;102695.69;;;9.27;67.67
64388;BME280;50709;52.648;4.764;2023-02-15T06:44:56;102691.84;;;8.49;64.47
64388;BME280;50709;52.648;4.764;2023-02-15T06:47:22;102690.63;;;9.07;66.90
64388;BME280;50709;52.648;4.764;2023-02-15T06:49:47;102705.78;;;9.42;68.43
64388;BME280;50709;52.648;4.764;2023-02-15T06:52:13;102674.63;;;9.21;66.33
64388;BME280;50709;52.648;4.764;2023-02-15T06:54:38;102688.34;;;9.39;66.77
64388;BME280;50709;52.648;4.764;2023-02-15T06:57:03;102704.69;;;8.88;67.55
64388;BME280;50709;52.648;4.764;2023-02-15T06:59:29;102708.00;;;8.84;68.36
64388;BME280;50709;52.648;4.764;2023-02-15T07:01:54;102693.09;;;8.59;68.84
64388;BME280;50709;52.648;4.764;2023-02-15T07:04:19;102710.63;;;8.63;69.80
64388;BME280;50709;52.648;4.764;2023-02-15T07:06:45;102711.25;;;8.79;69.08
64388;BME280;50709;52.648;4.764;2023-02-15T07:09:11;102696.66;;;8.61;69.41
64388;BME280;50709;52.648;4.764;2023-02-15T07:11:38;102706.19;;;7.38;69.29
64388;BME280;50709;52.648;4.764;2023-02-15T07:14:22;102710.84;;;7.65;70.58
64388;BME280;50709;52.648;4.764;2023-02-15T07:16:47;102718.75;;;7.88;70.55
64388;BME280;50709;52.648;4.764;2023-02-15T07:19:12;102711.22;;;7.94;71.51
64388;BME280;50709;52.648;4.764;2023-02-15T07:21:38;102700.81;;;7.94;70.23
64388;BME280;50709;52.648;4.764;2023-02-15T07:24:03;102715.03;;;8.02;70.69
64388;BME280;50709;52.648;4.764;2023-02-15T07:26:31;102681.50;;;7.48;69.23
64388;BME280;50709;52.648;4.764;2023-02-15T07:28:56;102704.13;;;7.31;71.99
64388;BME280;50709;52.648;4.764;2023-02-15T07:31:22;102666.31;;;7.57;72.75
64388;BME280;50709;52.648;4.764;2023-02-15T07:33:47;102673.59;;;7.66;73.33
64388;BME280;50709;52.648;4.764;2023-02-15T07:36:13;102691.75;;;7.65;71.82
64388;BME280;50709;52.648;4.764;2023-02-15T07:38:40;102649.19;;;7.84;72.48
64388;BME280;50709;52.648;4.764;2023-02-15T07:41:09;102669.06;;;8.03;71.67
64388;BME280;50709;52.648;4.764;2023-02-15T07:43:38;102676.84;;;8.22;71.85
64388;BME280;50709;52.648;4.764;2023-02-15T07:46:06;102681.59;;;8.12;71.43
64388;BME280;50709;52.648;4.764;2023-02-15T07:48:33;102665.16;;;8.13;71.86
64388;BME280;50709;52.648;4.764;2023-02-15T07:50:59;102678.97;;;7.69;70.29
64388;BME280;50709;52.648;4.764;2023-02-15T07:53:25;102679.25;;;7.97;72.13
64388;BME280;50709;52.648;4.764;2023-02-15T07:55:50;102669.56;;;7.73;72.81
64388;BME280;50709;52.648;4.764;2023-02-15T07:58:17;102681.41;;;7.66;70.89
64388;BME280;50709;52.648;4.764;2023-02-15T08:00:43;102656.31;;;7.88;73.45
64388;BME280;50709;52.648;4.764;2023-02-15T08:03:26;102663.47;;;7.72;72.43
64388;BME280;50709;52.648;4.764;2023-02-15T08:05:56;102623.81;;;7.37;73.79
64388;BME280;50709;52.648;4.764;2023-02-15T08:08:22;102649.66;;;7.54;71.32
64388;BME280;50709;52.648;4.764;2023-02-15T08:11:18;102655.63;;;7.92;73.04
64388;BME280;50709;52.648;4.764;2023-02-15T08:14:01;102656.38;;;8.11;73.32
64388;BME280;50709;52.648;4.764;2023-02-15T08:16:42;102601.94;;;7.73;71.90
64388;BME280;50709;52.648;4.764;2023-02-15T08:19:25;102655.50;;;7.48;73.44
64388;BME280;50709;52.648;4.764;2023-02-15T08:21:58;102645.91;;;7.88;73.55
64388;BME280;50709;52.648;4.764;2023-02-15T08:24:26;102656.91;;;7.61;73.28
64388;BME280;50709;52.648;4.764;2023-02-15T08:26:52;102648.72;;;7.52;72.12
64388;BME280;50709;52.648;4.764;2023-02-15T08:29:21;102645.41;;;7.97;72.39
64388;BME280;50709;52.648;4.764;2023-02-15T08:31:48;102657.28;;;7.90;72.60
64388;BME280;50709;52.648;4.764;2023-02-15T08:34:16;102653.47;;;7.62;72.59
64388;BME280;50709;52.648;4.764;2023-02-15T08:36:42;102638.59;;;7.19;71.05
64388;BME280;50709;52.648;4.764;2023-02-15T08:39:11;102604.56;;;7.94;73.10
64388;BME280;50709;52.648;4.764;2023-02-15T08:41:37;102649.41;;;8.09;72.95
64388;BME280;50709;52.648;4.764;2023-02-15T08:44:06;102655.09;;;8.43;72.72
64388;BME280;50709;52.648;4.764;2023-02-15T08:46:37;102646.88;;;8.76;72.26
64388;BME280;50709;52.648;4.764;2023-02-15T08:49:03;102629.50;;;8.54;71.98
64388;BME280;50709;52.648;4.764;2023-02-15T08:51:34;102650.94;;;8.47;72.72
64388;BME280;50709;52.648;4.764;2023-02-15T08:54:05;102625.78;;;7.84;72.42
64388;BME280;50709;52.648;4.764;2023-02-15T08:56:36;102637.69;;;8.42;72.66
64388;BME280;50709;52.648;4.764;2023-02-15T08:59:02;102662.66;;;7.95;70.73
64388;BME280;50709;52.648;4.764;2023-02-15T09:01:30;102625.81;;;8.05;72.82
64388;BME280;50709;52.648;4.764;2023-02-15T09:04:01;102642.66;;;8.57;73.17
64388;BME280;50709;52.648;4.764;2023-02-15T09:06:29;102646.34;;;8.85;72.67
64388;BME280;50709;52.648;4.764;2023-02-15T09:08:54;102639.88;;;8.98;72.22
64388;BME280;50709;52.648;4.764;2023-02-15T09:11:27;102649.22;;;9.39;70.77
64388;BME280;50709;52.648;4.764;2023-02-15T09:13:57;102636.00;;;9.11;71.12
64388;BME280;50709;52.648;4.764;2023-02-15T09:16:24;102623.75;;;9.32;71.28
64388;BME280;50709;52.648;4.764;2023-02-15T09:18:51;102612.50;;;8.86;71.03
64388;BME280;50709;52.648;4.764;2023-02-15T09:21:19;102623.66;;;8.82;71.88
64388;BME280;50709;52.648;4.764;2023-02-15T09:23:46;102585.28;;;8.33;71.88
64388;BME280;50709;52.648;4.764;2023-02-15T09:26:14;102631.56;;;8.85;71.88
64388;BME280;50709;52.648;4.764;2023-02-15T09:28:40;102624.56;;;8.83;70.98
64388;BME280;50709;52.648;4.764;2023-02-15T09:31:07;102635.84;;;9.30;70.88
64388;BME280;50709;52.648;4.764;2023-02-15T09:33:34;102584.78;;;8.64;70.34
64388;BME280;50709;52.648;4.764;2023-02-15T09:36:00;102609.59;;;9.01;71.30
64388;BME280;50709;52.648;4.764;2023-02-15T09:38:26;102600.09;;;8.79;71.44
64388;BME280;50709;52.648;4.764;2023-02-15T09:44:11;102635.91;;;9.82;69.89
64388;BME280;50709;52.648;4.764;2023-02-15T09:49:49;102588.25;;;9.62;70.49
64388;BME280;50709;52.648;4.764;2023-02-15T10:01:02;102616.59;;;9.26;70.64
64388;BME280;50709;52.648;4.764;2023-02-15T10:03:53;102603.00;;;9.35;69.74
64388;BME280;50709;52.648;4.764;2023-02-15T10:12:58;102609.63;;;10.30;68.46
64388;BME280;50709;52.648;4.764;2023-02-15T10:15:06;102617.31;;;9.98;68.69
64388;BME280;50709;52.648;4.764;2023-02-15T10:28:26;102606.81;;;9.97;68.15
64388;BME280;50709;52.648;4.764;2023-02-15T10:30:59;102608.50;;;10.49;67.46
64388;BME280;50709;52.648;4.764;2023-02-15T10:33:40;102595.44;;;10.22;66.81
64388;BME280;50709;52.648;4.764;2023-02-15T10:44:36;102531.88;;;10.49;66.63
64388;BME280;50709;52.648;4.764;2023-02-15T10:50:06;102570.97;;;11.06;66.29
64388;BME280;50709;52.648;4.764;2023-02-15T11:06:22;102549.03;;;11.33;64.75
64388;BME280;50709;52.648;4.764;2023-02-15T11:08:52;102562.13;;;11.68;63.80
64388;BME280;50709;52.648;4.764;2023-02-15T11:11:27;102544.34;;;11.21;63.40
64388;BME280;50709;52.648;4.764;2023-02-15T11:13:59;102540.88;;;11.22;63.00
64388;BME280;50709;52.648;4.764;2023-02-15T11:16:33;102538.22;;;11.54;63.31
64388;BME280;50709;52.648;4.764;2023-02-15T11:19:07;102548.72;;;11.91;62.57
64388;BME280;50709;52.648;4.764;2023-02-15T11:21:42;102533.88;;;12.28;63.14
64388;BME280;50709;52.648;4.764;2023-02-15T11:24:13;102545.47;;;12.38;61.86
64388;BME280;50709;52.648;4.764;2023-02-15T11:26:44;102554.63;;;12.58;61.40
64388;BME280;50709;52.648;4.764;2023-02-15T11:32:38;102521.88;;;12.38;60.05
64388;BME280;50709;52.648;4.764;2023-02-15T11:37:40;102543.50;;;12.69;60.15
64388;BME280;50709;52.648;4.764;2023-02-15T11:40:20;102539.41;;;12.83;58.98
64388;BME280;50709;52.648;4.764;2023-02-15T11:42:48;102520.75;;;12.68;59.87
64388;BME280;50709;52.648;4.764;2023-02-15T11:45:35;102525.78;;;12.58;59.37
64388;BME280;50709;52.648;4.764;2023-02-15T11:48:05;102526.78;;;12.64;59.06
64388;BME280;50709;52.648;4.764;2023-02-15T11:50:33;102509.91;;;12.51;58.97
64388;BME280;50709;52.648;4.764;2023-02-15T11:53:04;102503.59;;;12.84;59.85
64388;BME280;50709;52.648;4.764;2023-02-15T11:55:31;102510.31;;;12.71;59.46
64388;BME280;50709;52.648;4.764;2023-02-15T11:58:04;102510.38;;;12.74;59.67
64388;BME280;50709;52.648;4.764;2023-02-15T12:00:46;102491.09;;;12.70;59.52
64388;BME280;50709;52.648;4.764;2023-02-15T12:03:21;102505.84;;;13.11;59.26
64388;BME280;50709;52.648;4.764;2023-02-15T12:05:51;102490.81;;;13.02;59.35
64388;BME280;50709;52.648;4.764;2023-02-15T12:08:22;102480.91;;;12.87;59.09
64388;BME280;50709;52.648;4.764;2023-02-15T12:11:07;102487.84;;;12.82;59.82
64388;BME280;50709;52.648;4.764;2023-02-15T12:13:56;102488.59;;;12.78;60.84
64388;BME280;50709;52.648;4.764;2023-02-15T12:16:22;102510.88;;;13.00;58.91
64388;BME280;50709;52.648;4.764;2023-02-15T12:18:47;102496.00;;;12.99;58.91
64388;BME280;50709;52.648;4.764;2023-02-15T12:21:34;102510.56;;;12.85;60.37
64388;BME280;50709;52.648;4.764;2023-02-15T12:24:21;102492.50;;;12.99;58.54
64388;BME280;50709;52.648;4.764;2023-02-15T12:27:02;102492.53;;;13.00;58.30
64388;BME280;50709;52.648;4.764;2023-02-15T12:30:15;102495.16;;;13.00;59.12
64388;BME280;50709;52.648;4.764;2023-02-15T12:33:21;102493.56;;;13.10;58.96
64388;BME280;50709;52.648;4.764;2023-02-15T12:35:57;102498.16;;;13.22;58.68
64388;BME280;50709;52.648;4.764;2023-02-15T12:38:25;102483.25;;;12.72;58.85
64388;BME280;50709;52.648;4.764;2023-02-15T12:41:05;102477.66;;;13.01;58.82
64388;BME280;50709;52.648;4.764;2023-02-15T12:43:44;102482.09;;;13.05;59.44
64388;BME280;50709;52.648;4.764;2023-02-15T12:46:14;102489.34;;;13.18;58.51
64388;BME280;50709;52.648;4.764;2023-02-15T12:48:44;102486.91;;;13.29;58.70
64388;BME280;50709;52.648;4.764;2023-02-15T12:51:14;102487.25;;;12.97;57.48
64388;BME280;50709;52.648;4.764;2023-02-15T12:53:40;102472.56;;;13.08;58.05
64388;BME280;50709;52.648;4.764;2023-02-15T12:56:08;102486.88;;;13.26;58.13
64388;BME280;50709;52.648;4.764;2023-02-15T12:58:39;102449.91;;;13.12;57.07
64388;BME280;50709;52.648;4.764;2023-02-15T13:01:18;102478.13;;;13.27;56.41
64388;BME280;50709;52.648;4.764;2023-02-15T13:03:56;102475.31;;;13.15;56.30
64388;BME280;50709;52.648;4.764;2023-02-15T13:06:23;102447.94;;;13.00;58.48
64388;BME280;50709;52.648;4.764;2023-02-15T13:08:53;102473.75;;;13.26;58.88
64388;BME280;50709;52.648;4.764;2023-02-15T13:11:26;102451.06;;;13.29;56.88
64388;BME280;50709;52.648;4.764;2023-02-15T13:13:58;102462.38;;;13.25;56.35
64388;BME280;50709;52.648;4.764;2023-02-15T13:16:32;102441.06;;;13.07;57.58
64388;BME280;50709;52.648;4.764;2023-02-15T13:19:12;102436.00;;;13.18;56.59
64388;BME280;50709;52.648;4.764;2023-02-15T13:21:44;102453.31;;;13.58;56.60
64388;BME280;50709;52.648;4.764;2023-02-15T13:24:23;102462.72;;;13.45;57.16
64388;BME280;50709;52.648;4.764;2023-02-15T13:26:50;102458.13;;;13.89;58.31
64388;BME280;50709;52.648;4.764;2023-02-15T13:29:22;102446.84;;;13.36;55.86
64388;BME280;50709;52.648;4.764;2023-02-15T13:31:49;102452.19;;;13.44;55.83
64388;BME280;50709;52.648;4.764;2023-02-15T13:34:20;102396.88;;;13.32;56.97
64388;BME280;50709;52.648;4.764;2023-02-15T13:55:44;102420.16;;;13.67;55.83
64388;BME280;50709;52.648;4.764;2023-02-15T13:58:33;102401.75;;;13.62;57.04
64388;BME280;50709;52.648;4.764;2023-02-15T14:06:46;102426.31;;;13.67;56.65
64388;BME280;50709;52.648;4.764;2023-02-15T14:20:23;102414.53;;;14.02;55.99
64388;BME280;50709;52.648;4.764;2023-02-15T14:23:04;102388.97;;;13.90;56.46
64388;BME280;50709;52.648;4.764;2023-02-15T14:28:45;102361.25;;;13.46;56.23
64388;BME280;50709;52.648;4.764;2023-02-15T14:31:14;102390.34;;;13.61;56.16
64388;BME280;50709;52.648;4.764;2023-02-15T14:33:47;102397.81;;;13.96;55.87
64388;BME280;50709;52.648;4.764;2023-02-15T14:36:18;102390.81;;;13.95;57.84
64388;BME280;50709;52.648;4.764;2023-02-15T14:39:16;102407.13;;;13.71;55.98
64388;BME280;50709;52.648;4.764;2023-02-15T14:42:18;102398.19;;;13.60;55.66
64388;BME280;50709;52.648;4.764;2023-02-15T14:44:57;102398.63;;;13.91;55.09
64388;BME280;50709;52.648;4.764;2023-02-15T14:47:31;102391.59;;;13.90;55.18
64388;BME280;50709;52.648;4.764;2023-02-15T14:58:55;102383.00;;;14.03;55.79
64388;BME280;50709;52.648;4.764;2023-02-15T15:01:40;102372.31;;;13.88;54.62
64388;BME280;50709;52.648;4.764;2023-02-15T15:04:10;102387.00;;;13.72;55.78
64388;BME280;50709;52.648;4.764;2023-02-15T15:06:40;102383.84;;;13.99;56.13
64388;BME280;50709;52.648;4.764;2023-02-15T15:09:20;102389.09;;;14.01;54.80
64388;BME280;50709;52.648;4.764;2023-02-15T15:11:51;102382.28;;;14.17;57.12
64388;BME280;50709;52.648;4.764;2023-02-15T15:16:58;102359.97;;;13.80;54.59
64388;BME280;50709;52.648;4.764;2023-02-15T15:19:57;102368.72;;;13.78;55.33
64388;BME280;50709;52.648;4.764;2023-02-15T15:22:24;102364.91;;;13.59;54.58